createdAt,value
2022-08-25T00:00:19.562Z,6.17
2022-08-25T00:02:54.985Z,6.10
2022-08-25T00:05:26.255Z,6.50
2022-08-25T00:07:54.633Z,6.20
2022-08-25T00:10:21.779Z,6.10
2022-08-25T00:12:55.071Z,6.20
2022-08-25T00:15:22.900Z,5.90
2022-08-25T00:17:50.683Z,5.97
2022-08-25T00:20:18.189Z,6.53
2022-08-25T00:22:49.010Z,5.60
2022-08-25T00:25:17.480Z,6.77
2022-08-25T00:27:45.922Z,6.53
2022-08-25T00:33:04.625Z,6.53
2022-08-25T00:35:31.874Z,6.10
2022-08-25T00:37:59.803Z,6.17
2022-08-25T00:40:28.808Z,5.70
2022-08-25T00:42:56.797Z,6.10
2022-08-25T00:45:27.114Z,6.33
2022-08-25T00:48:00.057Z,6.67
2022-08-25T00:50:29.936Z,6.17
2022-08-25T00:53:01.001Z,5.90
2022-08-25T00:55:36.887Z,6.00
2022-08-25T00:58:15.465Z,6.20
2022-08-25T01:00:48.547Z,5.47
2022-08-25T01:03:19.131Z,5.97
2022-08-25T01:05:46.641Z,7.40
2022-08-25T01:08:16.280Z,6.40
2022-08-25T01:10:46.257Z,6.20
2022-08-25T01:13:28.997Z,6.23
2022-08-25T01:16:00.035Z,6.53
2022-08-25T01:18:28.517Z,6.30
2022-08-25T01:20:57.906Z,5.97
2022-08-25T01:23:26.268Z,6.20
2022-08-25T01:26:07.786Z,5.40
2022-08-25T01:28:35.961Z,6.27
2022-08-25T01:31:23.825Z,6.97
2022-08-25T01:33:56.321Z,6.70
2022-08-25T01:36:25.648Z,6.90
2022-08-25T01:38:52.673Z,7.67
2022-08-25T01:41:48.405Z,6.30
2022-08-25T01:44:19.274Z,6.90
2022-08-25T01:46:46.442Z,6.93
2022-08-25T01:49:15.829Z,6.57
2022-08-25T01:52:00.058Z,6.50
2022-08-25T01:54:29.050Z,6.00
2022-08-25T01:57:01.622Z,6.40
2022-08-25T01:59:28.744Z,6.50
2022-08-25T02:01:59.670Z,6.57
2022-08-25T02:04:32.054Z,7.00
2022-08-25T02:07:04.830Z,7.80
2022-08-25T02:09:35.198Z,6.37
2022-08-25T02:12:02.440Z,6.87
2022-08-25T02:14:29.379Z,6.40
2022-08-25T02:16:57.216Z,7.57
2022-08-25T02:19:25.975Z,7.00
2022-08-25T02:21:53.372Z,6.47
2022-08-25T02:24:20.324Z,6.63
2022-08-25T02:26:50.530Z,6.20
2022-08-25T02:29:20.465Z,6.60
2022-08-25T02:31:47.491Z,6.90
2022-08-25T02:34:15.225Z,7.63
2022-08-25T02:36:43.695Z,6.97
2022-08-25T02:39:14.263Z,7.13
2022-08-25T02:41:43.556Z,7.50
2022-08-25T02:44:10.600Z,7.33
2022-08-25T02:46:38.310Z,7.50
2022-08-25T02:49:06.813Z,7.20
2022-08-25T02:51:38.871Z,6.50
2022-08-25T02:54:07.118Z,6.50
2022-08-25T02:56:34.178Z,5.90
2022-08-25T02:59:02.244Z,6.27
2022-08-25T03:01:30.159Z,6.73
2022-08-25T03:03:57.809Z,6.27
2022-08-25T03:06:25.650Z,6.53
2022-08-25T03:08:53.248Z,6.43
2022-08-25T03:11:24.063Z,7.00
2022-08-25T03:13:53.989Z,6.97
2022-08-25T03:16:21.523Z,7.40
2022-08-25T03:18:49.419Z,7.20
2022-08-25T03:21:17.601Z,7.40
2022-08-25T03:23:48.664Z,8.67
2022-08-25T03:26:36.509Z,7.90
2022-08-25T03:29:06.949Z,8.60
2022-08-25T03:31:37.496Z,7.07
2022-08-25T03:34:04.708Z,7.77
2022-08-25T03:36:32.024Z,6.90
2022-08-25T03:39:00.497Z,6.80
2022-08-25T03:41:32.831Z,8.10
2022-08-25T03:44:00.889Z,6.57
2022-08-25T03:46:32.751Z,6.27
2022-08-25T03:49:02.950Z,6.83
2022-08-25T03:51:40.626Z,6.63
2022-08-25T03:54:08.606Z,8.13
2022-08-25T03:56:35.983Z,7.87
2022-08-25T03:59:06.095Z,8.23
2022-08-25T04:01:36.602Z,8.33
2022-08-25T04:04:12.087Z,8.20
2022-08-25T04:06:40.462Z,8.50
2022-08-25T04:09:08.239Z,8.30
2022-08-25T04:11:35.279Z,8.00
2022-08-25T04:14:03.353Z,8.23
2022-08-25T04:16:34.290Z,9.33
2022-08-25T04:19:09.414Z,7.97
2022-08-25T04:21:39.147Z,8.30
2022-08-25T04:24:08.733Z,8.53
2022-08-25T04:26:42.542Z,7.63
2022-08-25T04:29:11.847Z,8.17
2022-08-25T04:31:44.466Z,7.77
2022-08-25T04:34:28.446Z,8.67
2022-08-25T04:37:01.375Z,8.77
2022-08-25T04:39:28.620Z,9.83
2022-08-25T04:41:55.858Z,8.40
2022-08-25T04:44:27.515Z,8.33
2022-08-25T04:46:57.601Z,8.87
2022-08-25T04:49:24.666Z,8.50
2022-08-25T04:51:51.597Z,8.53
2022-08-25T04:54:22.028Z,8.07
2022-08-25T04:56:58.097Z,9.20
2022-08-25T04:59:30.937Z,9.13
2022-08-25T05:02:02.365Z,9.63
2022-08-25T05:04:34.822Z,8.97
2022-08-25T05:07:04.288Z,8.80
2022-08-25T05:09:37.697Z,9.13
2022-08-25T05:12:05.508Z,10.07
2022-08-25T05:14:33.534Z,10.40
2022-08-25T05:17:01.494Z,10.20
2022-08-25T05:19:30.549Z,11.70
2022-08-25T05:22:00.463Z,11.53
2022-08-25T05:24:30.114Z,12.47
2022-08-25T05:27:01.730Z,12.17
2022-08-25T05:29:28.658Z,12.67
2022-08-25T05:31:58.643Z,12.27
2022-08-25T05:34:25.737Z,11.00
2022-08-25T05:36:53.046Z,12.10
2022-08-25T05:39:22.303Z,13.13
2022-08-25T05:41:54.776Z,13.50
2022-08-25T05:44:21.705Z,13.83
2022-08-25T05:46:48.864Z,12.90
2022-08-25T05:49:15.798Z,12.57
2022-08-25T05:51:42.672Z,13.37
2022-08-25T05:54:09.566Z,12.67
2022-08-25T05:56:40.099Z,13.70
2022-08-25T05:59:09.907Z,13.17
2022-08-25T06:02:00.156Z,12.43
2022-08-25T06:04:29.264Z,13.57
2022-08-25T06:06:58.666Z,11.80
2022-08-25T06:09:26.391Z,12.73
2022-08-25T06:11:55.221Z,11.63
2022-08-25T06:14:23.943Z,13.77
2022-08-25T06:16:53.577Z,11.83
2022-08-25T06:19:25.766Z,12.33
2022-08-25T06:21:57.720Z,11.00
2022-08-25T06:24:27.391Z,12.30
2022-08-25T06:26:57.934Z,11.77
2022-08-25T06:29:25.322Z,11.80
2022-08-25T06:31:52.682Z,11.20
2022-08-25T06:34:24.172Z,12.30
2022-08-25T06:36:53.738Z,12.30
2022-08-25T06:39:21.913Z,11.50
2022-08-25T06:41:54.929Z,12.20
2022-08-25T06:44:28.184Z,11.57
2022-08-25T06:46:57.652Z,12.20
2022-08-25T06:49:31.918Z,12.77
2022-08-25T06:52:04.212Z,12.20
2022-08-25T06:54:35.716Z,11.87
2022-08-25T06:57:06.801Z,12.73
2022-08-25T06:59:37.861Z,11.57
2022-08-25T07:02:08.732Z,12.53
2022-08-25T07:04:40.767Z,14.87
2022-08-25T07:07:10.000Z,12.40
2022-08-25T07:09:41.508Z,13.40
2022-08-25T07:12:11.160Z,14.13
2022-08-25T07:14:44.253Z,14.47
2022-08-25T07:17:23.594Z,13.83
2022-08-25T07:19:51.835Z,13.33
2022-08-25T07:22:25.065Z,14.70
2022-08-25T07:24:56.705Z,15.77
2022-08-25T07:27:23.656Z,14.90
2022-08-25T07:29:50.552Z,14.10
2022-08-25T07:32:20.061Z,14.30
2022-08-25T07:35:06.223Z,14.47
2022-08-25T07:40:30.136Z,13.70
2022-08-25T07:43:01.046Z,12.87
2022-08-25T07:45:33.389Z,14.70
2022-08-25T07:48:09.914Z,15.10
2022-08-25T07:50:42.462Z,15.10
2022-08-25T07:53:15.259Z,16.20
2022-08-25T07:55:47.230Z,15.70
2022-08-25T07:58:19.405Z,12.90
2022-08-25T08:00:53.128Z,13.00
2022-08-25T08:03:44.570Z,13.03
2022-08-25T08:06:16.773Z,13.20
2022-08-25T08:08:51.054Z,13.00
2022-08-25T08:11:41.473Z,15.00
2022-08-25T08:14:16.482Z,15.03
2022-08-25T08:16:46.907Z,16.00
2022-08-25T08:19:13.813Z,16.23
2022-08-25T08:21:43.461Z,15.30
2022-08-25T08:24:25.149Z,17.07
2022-08-25T08:26:59.617Z,17.03
2022-08-25T08:29:27.646Z,16.57
2022-08-25T08:31:54.564Z,16.23
2022-08-25T08:34:24.932Z,14.63
2022-08-25T08:36:52.983Z,15.70
2022-08-25T08:39:23.179Z,15.30
2022-08-25T08:42:17.296Z,14.80
2022-08-25T08:44:50.752Z,15.97
2022-08-25T08:47:52.891Z,16.53
2022-08-25T08:50:37.987Z,16.23
2022-08-25T08:53:39.766Z,14.10
2022-08-25T08:56:30.896Z,14.67
2022-08-25T08:59:12.097Z,14.00
2022-08-25T09:01:54.326Z,16.40
2022-08-25T09:04:33.993Z,13.13
2022-08-25T09:07:11.665Z,14.57
2022-08-25T09:09:44.198Z,14.13
2022-08-25T09:12:48.165Z,12.60
2022-08-25T09:15:54.829Z,13.40
2022-08-25T09:18:51.537Z,12.50
2022-08-25T09:21:35.221Z,12.20
2022-08-25T09:24:39.633Z,11.27
2022-08-25T09:27:29.856Z,12.43
2022-08-25T09:30:21.493Z,10.47
2022-08-25T09:33:05.115Z,12.00
2022-08-25T09:35:37.578Z,10.37
2022-08-25T09:38:09.258Z,9.57
2022-08-25T09:40:40.712Z,10.10
2022-08-25T09:43:52.646Z,10.37
2022-08-25T09:46:31.864Z,9.30
2022-08-25T09:49:16.715Z,8.97
2022-08-25T09:51:46.437Z,9.60
2022-08-25T09:54:13.784Z,8.80
2022-08-25T09:56:55.966Z,9.10
2022-08-25T09:59:35.169Z,9.07
2022-08-25T10:02:18.041Z,7.80
2022-08-25T10:04:47.792Z,7.43
2022-08-25T10:07:26.921Z,7.83
2022-08-25T10:10:01.812Z,6.67
2022-08-25T10:12:42.818Z,6.40
2022-08-25T10:15:37.084Z,6.60
2022-08-25T10:18:32.515Z,6.77
2022-08-25T10:21:10.439Z,5.67
2022-08-25T10:23:44.908Z,6.30
2022-08-25T10:26:23.678Z,6.33
2022-08-25T10:29:25.139Z,5.90
2022-08-25T10:32:27.580Z,5.93
2022-08-25T10:35:03.458Z,6.07
2022-08-25T10:38:06.056Z,5.53
2022-08-25T10:40:58.311Z,5.17
2022-08-25T10:43:38.036Z,4.60
2022-08-25T10:47:02.672Z,4.93
2022-08-25T10:49:41.953Z,3.80
2022-08-25T10:52:21.500Z,4.70
2022-08-25T10:54:59.170Z,4.27
2022-08-25T10:57:56.447Z,4.50
2022-08-25T11:00:35.305Z,4.40
2022-08-25T11:03:35.423Z,4.53
2022-08-25T11:06:37.594Z,4.17
2022-08-25T11:09:15.394Z,4.13
2022-08-25T11:12:01.472Z,3.93
2022-08-25T11:14:36.282Z,3.70
2022-08-25T11:17:26.941Z,4.10
2022-08-25T11:20:06.335Z,4.00
2022-08-25T11:22:52.469Z,3.60
2022-08-25T11:25:41.098Z,4.63
2022-08-25T11:28:18.898Z,4.23
2022-08-25T11:30:46.432Z,4.27
2022-08-25T11:33:17.432Z,4.53
2022-08-25T11:35:58.610Z,4.27
2022-08-25T11:39:10.863Z,4.07
2022-08-25T11:42:07.451Z,4.83
2022-08-25T11:45:25.491Z,4.17
2022-08-25T11:48:01.220Z,4.27
2022-08-25T11:50:31.742Z,4.60
2022-08-25T11:53:30.803Z,4.30
2022-08-25T11:56:12.610Z,4.83
2022-08-25T11:58:53.791Z,4.83
2022-08-25T12:01:40.076Z,4.00
2022-08-25T12:04:44.228Z,4.07
2022-08-25T12:07:18.798Z,4.30
2022-08-25T12:09:51.935Z,4.50
2022-08-25T12:12:44.196Z,3.90
2022-08-25T12:15:34.889Z,3.70
2022-08-25T12:18:11.254Z,3.83
2022-08-25T12:20:53.730Z,4.27
2022-08-25T12:24:06.833Z,3.93
2022-08-25T12:26:49.338Z,4.50
2022-08-25T12:29:31.581Z,4.43
2022-08-25T12:32:07.268Z,5.33
2022-08-25T12:34:54.311Z,4.20
2022-08-25T12:37:28.834Z,4.60
2022-08-25T12:40:04.239Z,3.93
2022-08-25T12:42:44.140Z,4.23
2022-08-25T12:45:30.347Z,4.27
2022-08-25T12:48:29.464Z,3.93
2022-08-25T12:51:03.668Z,3.83
2022-08-25T12:53:45.506Z,4.10
2022-08-25T12:56:39.446Z,4.70
2022-08-25T12:59:38.805Z,4.30
2022-08-25T13:02:36.770Z,4.47
2022-08-25T13:06:00.289Z,4.40
2022-08-25T13:08:46.588Z,4.70
2022-08-25T13:11:39.498Z,4.83
2022-08-25T13:14:20.310Z,4.17
2022-08-25T13:17:01.199Z,4.30
2022-08-25T13:19:34.771Z,3.83
2022-08-25T13:22:16.403Z,4.53
2022-08-25T13:24:47.424Z,4.07
2022-08-25T13:27:27.100Z,4.83
2022-08-25T13:30:04.710Z,4.50
2022-08-25T13:32:39.801Z,4.43
2022-08-25T13:35:32.933Z,4.50
2022-08-25T13:38:17.862Z,4.40
2022-08-25T13:40:45.020Z,3.97
2022-08-25T13:43:17.128Z,4.20
2022-08-25T13:45:47.606Z,4.40
2022-08-25T13:48:38.442Z,3.97
2022-08-25T13:51:24.405Z,4.50
2022-08-25T13:54:05.964Z,4.07
2022-08-25T13:56:40.560Z,4.73
2022-08-25T13:59:20.576Z,4.07
2022-08-25T14:01:50.115Z,4.80
2022-08-25T14:04:52.948Z,4.13
2022-08-25T14:07:20.855Z,4.60
2022-08-25T14:09:54.563Z,4.60
2022-08-25T14:12:45.463Z,4.40
2022-08-25T14:15:18.150Z,4.97
2022-08-25T14:18:00.846Z,4.57
2022-08-25T14:20:32.277Z,4.80
2022-08-25T14:23:10.042Z,4.63
2022-08-25T14:25:42.384Z,4.37
2022-08-25T14:28:19.722Z,4.57
2022-08-25T14:30:54.987Z,4.33
2022-08-25T14:33:31.533Z,4.73
2022-08-25T14:36:02.822Z,4.37
2022-08-25T14:38:35.293Z,4.53
2022-08-25T14:43:34.600Z,4.37
2022-08-25T14:46:14.565Z,4.80
2022-08-25T14:48:48.935Z,5.60
2022-08-25T14:51:16.591Z,4.60
2022-08-25T14:53:46.616Z,4.60
2022-08-25T14:56:16.121Z,4.97
2022-08-25T14:58:48.305Z,4.77
2022-08-25T15:01:29.374Z,5.27
2022-08-25T15:04:19.975Z,5.30
2022-08-25T15:06:57.932Z,5.40
2022-08-25T15:09:25.767Z,5.00
2022-08-25T15:12:00.432Z,5.30
2022-08-25T15:14:29.082Z,4.93
2022-08-25T15:17:02.186Z,5.23
2022-08-25T15:19:31.915Z,5.00
2022-08-25T15:21:59.257Z,4.40
2022-08-25T15:24:28.254Z,6.10
2022-08-25T15:27:05.100Z,6.00
2022-08-25T15:29:38.305Z,6.20
2022-08-25T15:32:07.626Z,5.30
2022-08-25T15:34:36.580Z,6.23
2022-08-25T15:37:12.349Z,4.70
2022-08-25T15:39:40.936Z,5.70
2022-08-25T15:42:10.276Z,5.67
2022-08-25T15:44:39.760Z,5.60
2022-08-25T15:47:12.594Z,7.13
2022-08-25T15:49:43.140Z,6.40
2022-08-25T15:52:10.149Z,5.60
2022-08-25T15:54:37.108Z,5.50
2022-08-25T15:57:04.591Z,6.60
2022-08-25T15:59:41.592Z,5.43
2022-08-25T16:02:15.276Z,5.07
2022-08-25T16:04:45.369Z,5.60
2022-08-25T16:07:15.455Z,5.40
2022-08-25T16:09:42.364Z,6.03
2022-08-25T16:12:11.086Z,5.67
2022-08-25T16:14:44.538Z,5.33
2022-08-25T16:17:15.475Z,4.90
2022-08-25T16:19:48.308Z,5.07
2022-08-25T16:22:15.738Z,5.27
2022-08-25T16:24:46.591Z,5.83
2022-08-25T16:27:19.283Z,5.87
2022-08-25T16:29:46.260Z,5.70
2022-08-25T16:32:19.172Z,5.57
2022-08-25T16:34:46.352Z,5.10
2022-08-25T16:37:17.023Z,5.40
2022-08-25T16:39:48.438Z,5.60
2022-08-25T16:42:17.680Z,5.20
2022-08-25T16:44:47.004Z,5.67
2022-08-25T16:47:20.392Z,5.50
2022-08-25T16:49:54.664Z,5.87
2022-08-25T16:52:40.670Z,5.50
2022-08-25T16:55:14.386Z,5.53
2022-08-25T16:57:54.231Z,4.87
2022-08-25T17:00:28.332Z,5.50
2022-08-25T17:02:59.471Z,5.10
2022-08-25T17:05:29.232Z,5.77
2022-08-25T17:08:20.212Z,5.53
2022-08-25T17:10:47.520Z,5.40
2022-08-25T17:13:14.835Z,6.07
2022-08-25T17:15:48.872Z,5.30
2022-08-25T17:18:19.413Z,5.43
2022-08-25T17:20:48.547Z,4.73
2022-08-25T17:23:18.102Z,5.20
2022-08-25T17:25:52.317Z,6.23
2022-08-25T17:28:19.203Z,5.73
2022-08-25T17:30:52.070Z,5.50
2022-08-25T17:33:24.099Z,5.80
2022-08-25T17:36:00.386Z,5.20
2022-08-25T17:38:30.159Z,5.90
2022-08-25T17:41:09.446Z,6.03
2022-08-25T17:43:41.832Z,6.00
2022-08-25T17:46:10.211Z,6.10
2022-08-25T17:48:43.844Z,6.17
2022-08-25T17:51:11.857Z,5.67
2022-08-25T17:53:41.337Z,5.57
2022-08-25T17:56:14.043Z,6.00
2022-08-25T17:58:42.699Z,5.80
2022-08-25T18:01:18.306Z,6.27
2022-08-25T18:03:45.319Z,5.50
2022-08-25T18:06:16.002Z,5.40
2022-08-25T18:08:51.639Z,5.50
2022-08-25T18:11:23.610Z,6.00
2022-08-25T18:13:53.644Z,6.00
2022-08-25T18:16:23.752Z,6.10
2022-08-25T18:18:52.892Z,6.23
2022-08-25T18:21:25.537Z,7.00
2022-08-25T18:24:03.229Z,6.30
2022-08-25T18:26:32.805Z,7.03
2022-08-25T18:29:04.492Z,7.87
2022-08-25T18:31:32.212Z,6.23
2022-08-25T18:33:59.330Z,6.70
2022-08-25T18:36:26.311Z,6.97
2022-08-25T18:39:14.660Z,8.50
2022-08-25T18:41:45.052Z,8.10
2022-08-25T18:44:15.719Z,7.77
2022-08-25T18:46:45.484Z,7.63
2022-08-25T18:49:17.117Z,7.27
2022-08-25T18:51:46.125Z,6.43
2022-08-25T18:54:23.417Z,6.67
2022-08-25T18:56:53.000Z,6.90
2022-08-25T18:59:23.747Z,6.27
2022-08-25T19:02:02.643Z,6.60
2022-08-25T19:04:32.464Z,7.03
2022-08-25T19:07:01.881Z,6.90
2022-08-25T19:09:33.541Z,7.10
2022-08-25T19:12:00.687Z,7.00
2022-08-25T19:14:30.868Z,7.40
2022-08-25T19:16:58.818Z,6.80
2022-08-25T19:19:27.321Z,7.80
2022-08-25T19:21:54.370Z,7.60
2022-08-25T19:24:21.634Z,8.13
2022-08-25T19:26:54.507Z,8.60
2022-08-25T19:29:25.163Z,7.80
2022-08-25T19:31:54.972Z,8.60
2022-08-25T19:34:30.431Z,8.00
2022-08-25T19:37:00.747Z,9.10
2022-08-25T19:39:33.871Z,8.93
2022-08-25T19:42:03.682Z,8.90
2022-08-25T19:44:32.036Z,10.00
2022-08-25T19:47:01.704Z,9.70
2022-08-25T19:49:35.469Z,8.40
2022-08-25T19:52:10.541Z,7.97
2022-08-25T19:54:45.815Z,8.33
2022-08-25T19:57:28.211Z,7.40
2022-08-25T20:00:07.647Z,8.37
2022-08-25T20:02:34.683Z,8.20
2022-08-25T20:05:05.336Z,8.10
2022-08-25T20:07:35.542Z,7.63
2022-08-25T20:10:04.156Z,7.07
2022-08-25T20:12:35.491Z,7.97
2022-08-25T20:15:06.526Z,7.20
2022-08-25T20:17:33.597Z,7.03
2022-08-25T20:20:04.842Z,7.10
2022-08-25T20:22:33.635Z,7.50
2022-08-25T20:25:26.391Z,8.27
2022-08-25T20:27:57.321Z,7.47
2022-08-25T20:30:29.493Z,7.87
2022-08-25T20:32:58.137Z,7.10
2022-08-25T20:35:28.319Z,7.43
2022-08-25T20:37:58.133Z,7.47
2022-08-25T20:40:27.886Z,8.47
2022-08-25T20:43:02.938Z,8.20
2022-08-25T20:45:30.112Z,7.40
2022-08-25T20:47:57.303Z,8.27
2022-08-25T20:50:24.602Z,7.53
2022-08-25T20:52:56.695Z,8.30
2022-08-25T20:55:24.313Z,7.83
2022-08-25T20:57:52.305Z,7.93
2022-08-25T21:00:20.203Z,8.70
2022-08-25T21:02:55.005Z,8.17
2022-08-25T21:05:25.033Z,9.10
2022-08-25T21:07:51.963Z,8.60
2022-08-25T21:10:18.978Z,9.47
2022-08-25T21:12:45.861Z,9.43
2022-08-25T21:15:18.130Z,9.20
2022-08-25T21:17:50.678Z,8.10
2022-08-25T21:20:18.370Z,9.43
2022-08-25T21:22:47.694Z,9.70
2022-08-25T21:25:14.842Z,9.23
2022-08-25T21:27:43.431Z,8.83
2022-08-25T21:30:13.974Z,8.73
2022-08-25T21:32:53.193Z,9.47
2022-08-25T21:35:29.539Z,8.73
2022-08-25T21:37:58.971Z,8.57
2022-08-25T21:40:26.254Z,10.83
2022-08-25T21:42:53.185Z,9.23
2022-08-25T21:45:21.783Z,9.20
2022-08-25T21:47:51.887Z,9.30
2022-08-25T21:50:19.781Z,8.60
2022-08-25T21:52:46.781Z,9.90
2022-08-25T21:55:15.950Z,10.27
2022-08-25T21:57:43.752Z,9.33
2022-08-25T22:00:13.254Z,8.77
2022-08-25T22:02:43.922Z,10.03
2022-08-25T22:05:11.780Z,8.90
2022-08-25T22:07:44.033Z,9.10
2022-08-25T22:10:17.661Z,8.90
2022-08-25T22:12:50.476Z,10.33
2022-08-25T22:15:18.297Z,10.47
2022-08-25T22:17:48.397Z,9.80
2022-08-25T22:20:18.136Z,8.80
2022-08-25T22:22:45.289Z,10.10
2022-08-25T22:25:13.105Z,9.73
2022-08-25T22:27:43.106Z,10.03
2022-08-25T22:30:14.014Z,9.30
2022-08-25T22:32:40.927Z,9.53
2022-08-25T22:35:08.786Z,10.03
2022-08-25T22:37:36.545Z,10.20
2022-08-25T22:40:07.319Z,10.03
2022-08-25T22:42:36.636Z,10.37
2022-08-25T22:45:06.151Z,10.13
2022-08-25T22:47:35.574Z,10.40
2022-08-25T22:50:02.925Z,10.60
2022-08-25T22:52:33.965Z,9.63
2022-08-25T22:55:02.890Z,10.13
2022-08-25T22:57:32.157Z,11.10
2022-08-25T22:59:59.291Z,10.87
2022-08-25T23:02:27.710Z,9.63
2022-08-25T23:05:02.338Z,10.60
2022-08-25T23:07:34.721Z,10.37
2022-08-25T23:10:03.505Z,9.87
2022-08-25T23:12:31.869Z,10.07
2022-08-25T23:15:04.385Z,10.30
2022-08-25T23:17:32.257Z,10.33
2022-08-25T23:20:21.247Z,9.60
2022-08-25T23:22:50.034Z,10.43
2022-08-25T23:25:21.588Z,10.27
2022-08-25T23:27:50.523Z,9.77
2022-08-25T23:30:18.931Z,9.63
2022-08-25T23:32:50.803Z,10.30
2022-08-25T23:35:17.803Z,11.17
2022-08-25T23:37:48.612Z,9.87
2022-08-25T23:40:19.548Z,9.40
2022-08-25T23:42:51.635Z,9.80
2022-08-25T23:45:18.623Z,9.77
2022-08-25T23:47:45.613Z,11.10
2022-08-25T23:50:12.670Z,9.70
2022-08-25T23:52:42.142Z,10.00
2022-08-25T23:55:09.862Z,9.77
2022-08-25T23:57:37.189Z,10.00
